Time;durP1;ratioP1;P1;durP2;ratioP2;P2;SDS_P1;SDS_P2;PMS_P1;PMS_P2;Temp;Humidity;BMP_temperature;BMP_pressure;BME280_temperature;BME280_humidity;BME280_pressure;Samples;Min_cycle;Max_cycle;Signal;HPM_P1;HPM_P2
2021/12/24 00:02:13;;;;;;;6.07;4.13;;;;;;;1.29;100.00;99487.34;4797401;29;20100;-77
2021/12/24 00:04:38;;;;;;;6.60;4.00;;;;;;;1.48;100.00;99512.63;4798998;29;20322;-77
2021/12/24 00:07:04;;;;;;;5.78;3.80;;;;;;;1.53;100.00;99507.66;4790950;29;20046;-77
2021/12/24 00:09:32;;;;;;;4.72;3.78;;;;;;;1.54;100.00;99507.47;4800436;29;20034;-78
2021/12/24 00:12:01;;;;;;;4.72;3.45;;;;;;;1.36;100.00;99491.00;4789541;29;20062;-77
2021/12/24 00:14:29;;;;;;;4.43;3.17;;;;;;;1.49;100.00;99501.00;4791185;29;20113;-77
2021/12/24 00:16:58;;;;;;;4.97;3.00;;;;;;;1.54;100.00;99512.75;4790216;29;20041;-77
2021/12/24 00:19:39;;;;;;;4.53;3.00;;;;;;;1.49;100.00;99503.66;4791420;29;20069;-77
2021/12/24 00:35:51;;;;;;;4.18;2.50;;;;;;;1.38;100.00;99516.28;4791063;29;20043;-77
2021/12/24 00:38:17;;;;;;;4.53;2.50;;;;;;;1.27;100.00;99511.38;4806245;29;20102;-77
2021/12/24 00:40:45;;;;;;;3.88;2.70;;;;;;;1.21;100.00;99506.75;4820849;29;20035;-77
2021/12/24 00:43:12;;;;;;;3.17;2.45;;;;;;;1.32;100.00;99532.88;4806861;29;20046;-77
2021/12/24 00:45:44;;;;;;;5.00;3.10;;;;;;;1.26;100.00;99525.63;4806985;29;20121;-77
2021/12/24 00:48:15;;;;;;;3.60;3.00;;;;;;;1.06;100.00;99521.69;4806440;29;20066;-76
2021/12/24 00:56:04;;;;;;;4.35;2.80;;;;;;;0.88;100.00;99528.03;4805894;29;20121;-76
2021/12/24 00:58:31;;;;;;;3.08;2.70;;;;;;;0.89;100.00;99532.34;4790956;29;20059;-77
2021/12/24 01:00:57;;;;;;;4.28;2.80;;;;;;;0.89;100.00;99524.41;4804580;29;20046;-77
2021/12/24 01:03:22;;;;;;;3.22;2.92;;;;;;;1.03;100.00;99533.47;4806907;29;20034;-77
2021/12/24 01:05:47;;;;;;;5.25;3.22;;;;;;;0.84;100.00;99504.72;4804781;29;20470;-77
2021/12/24 01:08:14;;;;;;;3.60;2.88;;;;;;;1.11;100.00;99540.56;4806041;29;20046;-76
2021/12/24 01:10:46;;;;;;;3.35;2.80;;;;;;;0.93;100.00;99540.78;4806445;29;20292;-77
2021/12/24 01:13:12;;;;;;;3.92;3.53;;;;;;;0.74;100.00;99547.25;4790340;29;20058;-76
2021/12/24 01:15:50;;;;;;;5.97;4.53;;;;;;;0.68;100.00;99542.63;4806755;29;20038;-76
2021/12/24 01:18:29;;;;;;;3.60;3.08;;;;;;;0.39;100.00;99538.63;4805274;29;20069;-76
2021/12/24 01:21:11;;;;;;;3.95;3.25;;;;;;;0.40;100.00;99545.59;4798510;29;20031;-76
2021/12/24 01:26:55;;;;;;;3.47;3.03;;;;;;;0.38;100.00;99552.88;4776740;29;20125;-77
2021/12/24 01:29:41;;;;;;;2.78;2.20;;;;;;;0.58;100.00;99544.59;4791449;30;20050;-78
2021/12/24 01:37:54;;;;;;;4.95;2.90;;;;;;;0.00;100.00;99474.97;4788862;29;20177;-77
2021/12/24 01:42:47;;;;;;;2.75;2.55;;;;;;;0.33;100.00;99528.72;4805426;29;20346;-77
2021/12/24 01:45:26;;;;;;;3.13;2.38;;;;;;;-0.24;100.00;99454.59;4795856;29;20031;-77
2021/12/24 01:47:58;;;;;;;2.35;1.90;;;;;;;0.21;100.00;99507.03;4809229;29;20030;-76
2021/12/24 01:50:25;;;;;;;2.70;2.30;;;;;;;0.35;100.00;99534.66;4808475;29;20030;-77
2021/12/24 01:52:53;;;;;;;2.22;1.95;;;;;;;0.03;100.00;99526.69;4793919;29;20481;-77
2021/12/24 01:55:19;;;;;;;2.38;1.90;;;;;;;0.05;100.00;99538.75;4792778;29;20444;-76
2021/12/24 01:57:45;;;;;;;2.50;2.03;;;;;;;0.14;100.00;99536.97;4809531;29;20072;-76
2021/12/24 02:00:16;;;;;;;2.17;1.83;;;;;;;-0.07;100.00;99532.94;4808583;29;20474;-76
2021/12/24 02:02:42;;;;;;;2.33;1.67;;;;;;;-0.21;100.00;99525.63;4792965;29;20038;-77
2021/12/24 02:05:08;;;;;;;2.00;1.80;;;;;;;-0.32;100.00;99520.66;4792960;29;20031;-76
2021/12/24 02:07:34;;;;;;;2.50;1.80;;;;;;;-0.28;100.00;99524.63;4793108;29;20035;-77
2021/12/24 02:09:59;;;;;;;2.38;2.03;;;;;;;-0.47;100.00;99478.16;4794229;29;20034;-77
2021/12/24 02:12:26;;;;;;;2.58;2.15;;;;;;;-0.34;100.00;99514.69;4809297;29;20039;-76
2021/12/24 02:14:55;;;;;;;2.15;1.95;;;;;;;-0.33;100.00;99484.63;4807007;29;20031;-76
2021/12/24 02:28:36;;;;;;;2.13;1.80;;;;;;;-0.68;100.00;99518.22;4811335;29;20070;-77
2021/12/24 02:31:02;;;;;;;2.85;1.80;;;;;;;-0.67;100.00;99508.47;4812025;29;20100;-76
2021/12/24 02:33:28;;;;;;;1.98;1.67;;;;;;;-0.74;100.00;99495.91;4805590;29;20117;-76
2021/12/24 02:35:53;;;;;;;2.83;2.00;;;;;;;-0.84;100.00;99489.09;4808862;29;20047;-77
2021/12/24 02:38:19;;;;;;;2.55;1.90;;;;;;;-0.92;100.00;99495.16;4807406;29;20043;-76
2021/12/24 02:40:46;;;;;;;2.00;1.75;;;;;;;-0.97;100.00;99508.81;4823176;29;20045;-76
2021/12/24 02:43:16;;;;;;;2.25;2.00;;;;;;;-0.99;100.00;99484.41;4808382;29;20041;-76
2021/12/24 02:45:44;;;;;;;2.55;1.95;;;;;;;-1.21;100.00;99501.59;4792156;29;20034;-76
2021/12/24 02:53:58;;;;;;;3.10;2.47;;;;;;;-1.36;100.00;99470.63;4808572;29;20127;-76
2021/12/24 02:56:32;;;;;;;2.28;2.08;;;;;;;-1.37;100.00;99463.72;4791946;29;20055;-76
2021/12/24 02:59:00;;;;;;;2.63;2.20;;;;;;;-1.27;100.00;99494.28;4792261;29;20038;-76
2021/12/24 03:01:32;;;;;;;2.30;2.03;;;;;;;-1.17;100.00;99514.47;4807807;29;20540;-76
2021/12/24 03:03:57;;;;;;;2.10;1.60;;;;;;;-1.29;100.00;99517.38;4806275;29;20031;-77
2021/12/24 03:06:25;;;;;;;3.28;2.33;;;;;;;-1.15;100.00;99502.78;4807871;29;20113;-76
2021/12/24 03:08:51;;;;;;;4.00;2.20;;;;;;;-1.28;100.00;99489.19;4807968;29;20027;-76
2021/12/24 03:11:17;;;;;;;2.80;2.50;;;;;;;-1.23;100.00;99511.47;4790562;29;20142;-76
2021/12/24 03:13:42;;;;;;;2.38;2.10;;;;;;;-1.29;100.00;99487.50;4793189;29;20137;-76
2021/12/24 03:16:08;;;;;;;2.00;1.60;;;;;;;-1.26;100.00;99518.88;4793439;29;20072;-77
2021/12/24 03:18:36;;;;;;;2.03;1.73;;;;;;;-1.58;100.00;99450.91;4822353;29;20031;-77
2021/12/24 03:21:08;;;;;;;2.40;2.20;;;;;;;-1.36;100.00;99502.31;4822126;29;20049;-76
2021/12/24 03:23:43;;;;;;;2.97;2.30;;;;;;;-1.24;100.00;99538.03;4795409;29;20031;-76
2021/12/24 03:26:10;;;;;;;;;;;;;;;-1.20;100.00;99531.44;4792187;29;20038;-76
2021/12/24 03:28:36;;;;;;;2.20;1.48;;;;;;;-1.24;100.00;99527.47;4823095;29;19913;-76
2021/12/24 03:31:04;;;;;;;2.60;2.20;;;;;;;-1.25;100.00;99525.81;4807918;29;20100;-76
2021/12/24 03:33:29;;;;;;;3.17;2.22;;;;;;;-1.13;100.00;99544.84;4805855;29;20061;-76
2021/12/24 03:35:55;;;;;;;2.75;2.22;;;;;;;-1.33;100.00;99525.75;4814356;29;20061;-76
2021/12/24 03:38:22;;;;;;;2.80;2.20;;;;;;;-1.22;100.00;99554.53;4806939;29;20425;-76
2021/12/24 03:40:48;;;;;;;3.30;2.60;;;;;;;-1.12;100.00;99550.00;4790980;29;20058;-76
2021/12/24 03:43:14;;;;;;;3.17;2.13;;;;;;;-1.09;100.00;99560.25;4808107;29;20065;-76
2021/12/24 03:45:55;;;;;;;2.10;1.85;;;;;;;-1.21;100.00;99564.94;4790145;29;20027;-76
2021/12/24 03:48:36;;;;;;;2.88;1.92;;;;;;;-1.09;100.00;99552.31;4811576;29;20031;-76
2021/12/24 03:51:20;;;;;;;2.28;1.75;;;;;;;-1.06;100.00;99554.66;4807202;29;20038;-77
2021/12/24 03:56:32;;;;;;;2.47;1.70;;;;;;;-1.22;100.00;99551.91;4808249;29;20067;-75
2021/12/24 03:58:58;;;;;;;1.58;1.33;;;;;;;-1.19;100.00;99556.88;4818524;29;20034;-76
2021/12/24 04:01:24;;;;;;;1.70;1.05;;;;;;;-1.33;100.00;99544.22;4802593;29;20427;-76
2021/12/24 04:03:50;;;;;;;2.67;1.40;;;;;;;-1.35;100.00;99556.75;4791271;29;20034;-77
2021/12/24 04:06:16;;;;;;;2.28;0.93;;;;;;;-1.21;100.00;99577.31;4807202;29;20043;-76
2021/12/24 04:08:42;;;;;;;1.60;1.00;;;;;;;-1.18;100.00;99590.19;4807722;29;20050;-77
2021/12/24 04:11:08;;;;;;;1.80;0.95;;;;;;;-1.26;100.00;99596.25;4807820;29;20034;-76
2021/12/24 04:13:34;;;;;;;1.38;0.60;;;;;;;-1.20;100.00;99608.00;4805672;29;20034;-76
2021/12/24 04:16:03;;;;;;;1.25;0.80;;;;;;;-1.31;100.00;99624.06;4807569;29;20071;-76
2021/12/24 04:26:23;;;;;;;1.15;0.50;;;;;;;-1.55;100.00;99649.25;4804846;29;20046;-76
2021/12/24 04:28:49;;;;;;;1.15;0.57;;;;;;;-1.50;100.00;99628.50;4805629;29;20464;-76
2021/12/24 04:31:15;;;;;;;2.63;0.40;;;;;;;-1.56;100.00;99650.22;4819932;29;20043;-76
2021/12/24 04:33:46;;;;;;;0.80;0.50;;;;;;;-1.78;100.00;99635.66;4803105;29;20033;-76
2021/12/24 04:52:39;;;;;;;0.57;0.00;;;;;;;-2.84;93.54;99694.84;4806893;29;20050;-76
2021/12/24 05:03:27;;;;;;;0.30;0.10;;;;;;;-2.92;92.83;99736.81;4789103;29;20099;-76
2021/12/24 05:06:05;;;;;;;3.85;0.22;;;;;;;-3.10;92.14;99739.31;4788037;30;20469;-76
2021/12/24 05:08:40;;;;;;;1.45;0.20;;;;;;;-3.07;91.42;99746.94;4809113;29;20043;-75
2021/12/24 05:11:10;;;;;;;2.53;0.20;;;;;;;-3.06;91.39;99751.22;4805818;29;20026;-76
2021/12/24 05:13:37;;;;;;;1.50;0.30;;;;;;;-3.52;89.81;99707.97;4800626;29;20039;-76
2021/12/24 05:16:13;;;;;;;1.35;0.20;;;;;;;-3.27;90.60;99750.53;4804028;29;20098;-76
2021/12/24 05:23:57;;;;;;;0.47;0.10;;;;;;;-3.32;91.14;99759.63;4803265;29;20119;-76
2021/12/24 05:26:23;;;;;;;1.58;0.10;;;;;;;-3.36;91.09;99741.63;4789448;29;20149;-76
2021/12/24 05:28:48;;;;;;;1.13;0.30;;;;;;;-3.57;90.64;99718.06;4804137;29;20042;-76
2021/12/24 05:31:14;;;;;;;2.13;0.35;;;;;;;-3.31;90.55;99776.28;4804273;29;20096;-76
2021/12/24 05:33:39;;;;;;;1.23;0.22;;;;;;;-3.31;90.95;99763.13;4804391;29;20035;-76
2021/12/24 05:36:05;;;;;;;1.95;0.10;;;;;;;-3.39;90.88;99758.50;4803181;29;20117;-75
2021/12/24 05:38:30;;;;;;;2.20;0.10;;;;;;;-3.34;90.59;99780.00;4790967;29;20035;-76
2021/12/24 05:40:56;;;;;;;1.98;0.10;;;;;;;-3.41;89.45;99768.34;4803934;29;20454;-75
2021/12/24 05:43:23;;;;;;;0.10;0.10;;;;;;;-3.30;89.96;99780.56;4804894;29;20061;-78
2021/12/24 05:45:49;;;;;;;1.95;0.10;;;;;;;-3.43;87.86;99785.22;4805115;29;20418;-76
2021/12/24 05:48:14;;;;;;;0.57;0.10;;;;;;;-3.52;87.62;99789.47;4803814;29;20125;-76
2021/12/24 05:50:40;;;;;;;0.20;0.08;;;;;;;-3.49;88.05;99770.81;4804761;29;20066;-75
2021/12/24 05:53:05;;;;;;;1.30;0.08;;;;;;;-3.61;87.54;99777.13;4819135;29;20039;-75
2021/12/24 05:55:31;;;;;;;1.38;0.20;;;;;;;-3.54;85.67;99783.53;4780343;29;20065;-76
2021/12/24 05:57:56;;;;;;;1.27;0.15;;;;;;;-3.70;85.72;99775.31;4790319;29;20039;-75
2021/12/24 06:00:22;;;;;;;1.02;0.20;;;;;;;-3.57;84.73;99804.84;4802150;29;20062;-74
2021/12/24 06:02:48;;;;;;;0.28;0.10;;;;;;;-3.54;85.31;99822.97;4805769;29;20569;-75
2021/12/24 06:05:13;;;;;;;0.50;0.10;;;;;;;-3.49;84.91;99817.31;4803746;29;20131;-75
2021/12/24 06:07:39;;;;;;;0.55;0.10;;;;;;;-3.57;84.70;99813.56;4772184;29;20476;-75
2021/12/24 06:10:05;;;;;;;0.95;0.10;;;;;;;-3.51;85.08;99809.53;4805417;29;20473;-74
2021/12/24 06:12:31;;;;;;;0.08;0.00;;;;;;;-3.71;83.61;99816.53;4794530;29;20148;-74
2021/12/24 06:15:02;;;;;;;0.68;0.05;;;;;;;-3.60;84.20;99815.63;4807672;29;20160;-74
2021/12/24 06:17:29;;;;;;;0.70;0.20;;;;;;;-4.07;83.10;99741.72;4792132;29;20066;-74
2021/12/24 06:19:54;;;;;;;0.35;0.08;;;;;;;-3.73;82.81;99822.91;4805912;29;20121;-74
2021/12/24 06:22:20;;;;;;;1.55;0.10;;;;;;;-3.62;83.21;99809.66;4800109;29;20130;-74
2021/12/24 06:24:45;;;;;;;2.25;0.10;;;;;;;-3.60;83.96;99828.78;4803626;29;20035;-74
2021/12/24 06:27:10;;;;;;;0.63;0.10;;;;;;;-3.61;83.30;99827.09;4806772;29;20469;-74
2021/12/24 06:29:36;;;;;;;0.45;0.10;;;;;;;-3.73;84.44;99804.50;4806634;29;20068;-74
2021/12/24 06:32:02;;;;;;;0.85;0.08;;;;;;;-3.75;84.25;99817.75;4792507;29;20457;-74
2021/12/24 06:34:30;;;;;;;0.20;0.10;;;;;;;-3.58;84.84;99845.22;4778205;29;20537;-74
2021/12/24 06:36:57;;;;;;;1.60;0.10;;;;;;;-3.63;84.17;99844.81;4804245;29;20129;-74
2021/12/24 06:39:23;;;;;;;1.23;0.13;;;;;;;-3.84;83.55;99839.56;4801239;29;20105;-74
2021/12/24 06:41:48;;;;;;;1.10;0.00;;;;;;;-3.68;84.64;99852.25;4806912;29;20126;-75
2021/12/24 06:44:14;;;;;;;0.20;0.00;;;;;;;-3.59;85.10;99861.97;4807392;29;20038;-75
2021/12/24 06:46:41;;;;;;;2.60;0.20;;;;;;;-3.66;85.58;99856.41;4802833;29;20053;-75
2021/12/24 06:49:08;;;;;;;1.30;0.05;;;;;;;-3.68;85.15;99873.28;4802779;29;20024;-75
2021/12/24 06:51:33;;;;;;;0.15;0.03;;;;;;;-3.75;84.88;99846.69;4808406;29;20030;-74
2021/12/24 06:53:59;;;;;;;0.90;0.10;;;;;;;-3.69;83.90;99893.47;4804619;29;20049;-74
2021/12/24 06:56:25;;;;;;;1.20;0.10;;;;;;;-3.94;83.35;99823.78;4804309;29;20103;-75
2021/12/24 06:58:50;;;;;;;2.08;0.20;;;;;;;-3.84;81.30;99882.47;4802362;29;20027;-75
2021/12/24 07:01:16;;;;;;;1.05;0.10;;;;;;;-3.71;79.18;99931.38;4793205;29;20035;-76
2021/12/24 07:03:42;;;;;;;0.25;0.00;;;;;;;-3.74;77.38;99929.00;4809038;29;20106;-77
2021/12/24 07:06:08;;;;;;;0.17;0.05;;;;;;;-3.88;74.68;99909.13;4789626;29;20408;-75
2021/12/24 07:08:34;;;;;;;1.25;0.10;;;;;;;-3.84;74.64;99915.78;4804771;29;20035;-76
2021/12/24 07:11:01;;;;;;;0.20;0.00;;;;;;;-3.79;74.91;99935.47;4774934;29;20035;-75
2021/12/24 07:13:27;;;;;;;0.20;0.00;;;;;;;-4.10;73.03;99884.66;4790973;29;20045;-75
2021/12/24 07:15:52;;;;;;;0.13;0.08;;;;;;;-4.03;73.00;99903.38;4800400;29;20466;-74
2021/12/24 07:18:18;;;;;;;0.60;0.00;;;;;;;-4.12;74.43;99912.00;4799675;29;20056;-73
2021/12/24 07:20:43;;;;;;;0.03;0.00;;;;;;;-4.06;74.87;99945.66;4802889;29;20078;-75
2021/12/24 07:23:09;;;;;;;0.93;0.10;;;;;;;-4.44;72.03;99902.34;4805828;29;20119;-76
2021/12/24 07:25:34;;;;;;;0.85;0.10;;;;;;;-4.13;71.11;99966.34;4792202;29;20031;-75
2021/12/24 07:28:03;;;;;;;0.20;0.00;;;;;;;-4.18;70.85;99988.69;4794800;29;20070;-73
2021/12/24 07:30:29;;;;;;;0.75;0.10;;;;;;;-4.22;70.47;99961.84;4794421;29;20059;-76
2021/12/24 07:32:54;;;;;;;0.95;0.10;;;;;;;-4.36;69.53;99962.97;4800818;29;20077;-76
2021/12/24 07:35:20;;;;;;;0.00;0.00;;;;;;;-4.52;70.98;99944.97;4804360;29;20058;-75
2021/12/24 07:37:46;;;;;;;0.82;0.10;;;;;;;-4.29;71.07;99976.44;4806936;29;20412;-76
2021/12/24 07:40:16;;;;;;;0.88;0.10;;;;;;;-4.77;69.53;99925.13;4806684;29;20462;-76
2021/12/24 07:42:44;;;;;;;0.63;0.20;;;;;;;-4.43;69.63;99992.47;4793197;29;20126;-76
2021/12/24 07:45:11;;;;;;;0.17;0.10;;;;;;;-4.44;69.83;99990.78;4791390;29;20456;-76
2021/12/24 07:47:40;;;;;;;0.70;0.10;;;;;;;-4.58;69.81;99984.03;4821522;29;20711;-77
2021/12/24 07:51:55;;;;;;;0.85;0.10;;;;;;;-4.55;69.20;99996.91;4807054;29;20035;-75
2021/12/24 07:53:02;;;;;;;0.65;0.10;;;;;;;-4.67;69.01;100013.63;4809431;29;20031;-77
2021/12/24 07:55:28;;;;;;;1.02;0.20;;;;;;;-4.89;69.78;99964.63;4806205;29;20043;-76
2021/12/24 07:57:54;;;;;;;1.00;0.20;;;;;;;-4.96;69.77;99987.91;4806501;29;20037;-78
2021/12/24 08:00:23;;;;;;;0.20;0.10;;;;;;;-4.70;71.74;100026.97;4806163;29;20099;-77
2021/12/24 08:02:48;;;;;;;0.30;0.10;;;;;;;-4.92;73.33;99978.81;4805070;29;20062;-76
2021/12/24 08:05:14;;;;;;;0.75;0.15;;;;;;;-4.95;74.80;100028.91;4806732;29;20119;-75
2021/12/24 08:07:40;;;;;;;0.40;0.08;;;;;;;-4.93;76.46;100031.41;4805390;29;20047;-75
2021/12/24 08:10:06;;;;;;;0.30;0.10;;;;;;;-5.17;76.22;100040.22;4795994;29;20112;-73
2021/12/24 08:12:31;;;;;;;0.63;0.10;;;;;;;-5.31;76.90;100008.97;4809957;29;20042;-76
2021/12/24 08:14:57;;;;;;;0.85;0.10;;;;;;;-5.39;77.30;100009.56;4813617;29;20031;-79
2021/12/24 08:17:22;;;;;;;0.25;0.00;;;;;;;-5.28;78.18;100033.16;4813711;29;20072;-80
2021/12/24 08:19:47;;;;;;;0.10;0.00;;;;;;;-5.32;78.51;100034.34;4821015;29;20371;-79
2021/12/24 08:22:13;;;;;;;3.40;0.20;;;;;;;-5.46;78.58;100030.16;4799337;29;20068;-79
2021/12/24 08:24:39;;;;;;;1.02;0.20;;;;;;;-5.37;79.24;100046.97;4809838;29;20473;-79
2021/12/24 08:27:06;;;;;;;0.38;0.10;;;;;;;-5.67;78.49;100035.22;4826208;29;20090;-80
2021/12/24 08:29:32;;;;;;;0.63;0.20;;;;;;;-5.89;78.32;100016.81;4804214;29;20035;-80
2021/12/24 08:31:58;;;;;;;0.88;0.25;;;;;;;-5.67;76.46;100100.72;4804925;29;20058;-80
2021/12/24 08:34:23;;;;;;;1.08;0.20;;;;;;;-5.96;77.08;100023.47;4820609;29;20042;-81
2021/12/24 08:36:51;;;;;;;0.80;0.20;;;;;;;-5.91;75.90;100064.06;4829265;29;20140;-80
2021/12/24 08:39:21;;;;;;;0.30;0.10;;;;;;;-7.83;76.12;99767.53;5188655;24;20179;-81
2021/12/24 08:41:52;;;;;;;0.65;0.17;;;;;;;-7.00;75.22;99898.38;5231379;24;20053;-79
2021/12/24 08:44:18;;;;;;;1.25;0.20;;;;;;;-8.13;75.95;99737.38;4933622;24;20062;-80
2021/12/24 08:46:43;;;;;;;0.93;0.13;;;;;;;-8.11;74.75;99765.97;4838711;29;20050;-79
2021/12/24 08:49:09;;;;;;;2.33;0.30;;;;;;;-7.25;75.57;99893.22;4834775;29;20062;-80
2021/12/24 08:54:10;;;;;;;0.57;0.13;;;;;;;-7.75;75.27;99817.41;4882752;24;20070;-81
2021/12/24 08:56:35;;;;;;;0.80;0.10;;;;;;;-6.11;74.36;100116.25;4837216;29;20101;-80
2021/12/24 08:59:01;;;;;;;0.15;0.00;;;;;;;-8.18;73.17;99869.97;4814676;29;20049;-81
2021/12/24 09:01:26;;;;;;;1.35;0.30;;;;;;;-8.16;75.49;99792.41;4833411;29;20109;-81
2021/12/24 09:03:52;;;;;;;1.83;0.10;;;;;;;-8.21;74.75;99818.00;4826135;29;20037;-82
2021/12/24 09:06:18;;;;;;;1.17;0.20;;;;;;;-7.61;75.14;99934.88;4828653;29;20046;-80
2021/12/24 09:08:44;;;;;;;0.60;0.10;;;;;;;-6.91;74.46;100061.66;4805823;29;20043;-81
2021/12/24 09:11:10;;;;;;;0.40;0.13;;;;;;;-7.43;74.28;99979.78;4815325;29;20010;-81
2021/12/24 09:36:53;;;;;;;0.65;0.10;;;;;;;-8.95;71.99;99827.25;5200777;24;20053;-81
2021/12/24 09:39:20;;;;;;;1.60;0.20;;;;;;;-6.70;71.71;100193.56;4839794;29;20054;-82
2021/12/24 09:46:56;;;;;;;1.73;0.35;;;;;;;-6.85;70.87;100199.88;5617196;24;20139;-78
2021/12/24 09:49:22;;;;;;;0.32;0.10;;;;;;;-6.81;70.58;100192.66;4826055;29;20018;-82
2021/12/24 09:51:51;;;;;;;0.38;0.10;;;;;;;-6.69;70.89;100220.56;4831652;29;20023;-79
2021/12/24 09:54:20;;;;;;;0.90;0.20;;;;;;;-6.94;70.23;100190.84;4825223;29;20039;-80
2021/12/24 09:56:47;;;;;;;0.73;0.50;;;;;;;-6.71;69.75;100204.16;4828706;29;20106;-79
2021/12/24 09:59:12;;;;;;;1.45;0.20;;;;;;;-6.67;70.82;100206.47;4812532;29;20034;-80
2021/12/24 10:01:42;;;;;;;1.73;0.30;;;;;;;-6.63;70.57;100204.47;4833852;29;20045;-80
2021/12/24 10:04:15;;;;;;;1.23;0.90;;;;;;;-6.79;71.22;100198.59;4820506;29;20094;-79
2021/12/24 10:06:59;;;;;;;0.40;0.20;;;;;;;-6.55;71.63;100219.66;4819740;29;20031;-79
2021/12/24 10:09:36;;;;;;;0.03;0.00;;;;;;;-6.62;69.74;100254.09;4832883;29;20056;-79
2021/12/24 10:12:08;;;;;;;0.43;0.20;;;;;;;-6.62;68.76;100234.94;4821202;29;20087;-79
2021/12/24 10:14:59;;;;;;;0.82;0.10;;;;;;;-6.64;69.75;100218.50;4807447;29;20026;-78
2021/12/24 10:17:34;;;;;;;0.95;0.10;;;;;;;-6.84;68.70;100193.69;4828437;29;20718;-78
2021/12/24 10:20:12;;;;;;;0.35;0.10;;;;;;;-6.73;67.71;100209.47;4833931;29;20010;-79
2021/12/24 10:22:52;;;;;;;0.20;0.20;;;;;;;-6.59;68.49;100233.88;4821073;29;20031;-79
2021/12/24 10:25:24;;;;;;;0.30;0.08;;;;;;;-6.38;68.43;100245.53;4815296;29;20041;-77
2021/12/24 10:27:50;;;;;;;1.65;0.10;;;;;;;-6.68;68.30;100219.66;4813504;29;20042;-79
2021/12/24 10:30:23;;;;;;;0.32;0.10;;;;;;;-6.48;68.05;100257.56;4869937;24;20058;-79
2021/12/24 10:32:52;;;;;;;0.17;0.00;;;;;;;-6.59;65.77;100247.78;4867503;24;20066;-80
2021/12/24 10:35:24;;;;;;;0.95;0.20;;;;;;;-6.58;68.21;100225.94;4788097;30;20036;-80
2021/12/24 10:38:13;;;;;;;0.30;0.17;;;;;;;-6.23;67.68;100246.25;4799144;30;20027;-80
2021/12/24 10:40:58;;;;;;;1.45;0.20;;;;;;;-6.36;66.54;100219.22;4801984;29;20692;-81
2021/12/24 10:43:33;;;;;;;0.20;0.10;;;;;;;-6.57;66.06;100225.00;4794421;30;20035;-80
2021/12/24 10:46:22;;;;;;;0.57;0.22;;;;;;;-6.38;64.95;100246.34;4855792;24;20067;-78
2021/12/24 10:49:07;;;;;;;0.70;0.20;;;;;;;-6.29;66.84;100233.56;4803557;29;20147;-80
2021/12/24 10:51:58;;;;;;;0.70;0.35;;;;;;;-6.27;65.09;100247.41;4800192;29;20051;-80
2021/12/24 10:54:23;;;;;;;0.30;0.20;;;;;;;-6.41;63.79;100241.34;4821486;29;20022;-78
2021/12/24 10:56:49;;;;;;;0.40;0.10;;;;;;;-6.37;64.34;100255.03;4816410;29;20018;-75
2021/12/24 10:59:14;;;;;;;0.80;0.22;;;;;;;-6.41;62.72;100250.97;4817423;29;20030;-79
2021/12/24 11:01:39;;;;;;;0.50;0.20;;;;;;;-6.41;63.48;100246.56;4815483;29;20047;-82
2021/12/24 11:04:05;;;;;;;0.93;0.22;;;;;;;-6.43;64.92;100222.25;4812574;29;20049;-79
2021/12/24 11:06:31;;;;;;;0.68;0.30;;;;;;;-6.45;64.16;100234.63;4804315;29;20500;-79
2021/12/24 11:08:58;;;;;;;1.77;0.43;;;;;;;-6.20;65.98;100257.34;4795919;29;20075;-79
2021/12/24 11:11:23;;;;;;;0.52;0.20;;;;;;;-6.24;64.54;100257.66;4807720;29;20046;-80
2021/12/24 11:13:50;;;;;;;0.40;0.30;;;;;;;-6.21;65.38;100250.44;4803615;29;20550;-80
2021/12/24 11:16:21;;;;;;;2.10;1.23;;;;;;;-6.39;67.08;100218.50;4797523;29;20045;-80
2021/12/24 11:19:07;;;;;;;1.55;0.47;;;;;;;-6.22;63.83;100261.88;4788263;29;20066;-79
2021/12/24 11:21:33;;;;;;;1.45;0.22;;;;;;;-6.41;65.54;100230.84;4808306;29;20084;-80
2021/12/24 11:23:58;;;;;;;0.57;0.20;;;;;;;-6.20;65.07;100270.44;4803649;29;20015;-80
2021/12/24 11:26:27;;;;;;;2.03;0.17;;;;;;;-6.31;66.08;100232.84;4809243;29;20027;-78
2021/12/24 11:28:54;;;;;;;0.47;0.20;;;;;;;-6.22;65.30;100227.81;4804058;29;20454;-79
2021/12/24 11:31:32;;;;;;;0.98;0.17;;;;;;;-6.22;63.94;100229.63;4806871;29;20045;-78
2021/12/24 11:33:58;;;;;;;0.20;0.10;;;;;;;-5.96;63.70;100251.34;4804989;29;20059;-77
2021/12/24 11:36:27;;;;;;;1.33;0.20;;;;;;;-6.29;61.37;100250.13;4807442;29;20039;-78
2021/12/24 11:38:58;;;;;;;1.13;0.20;;;;;;;-6.18;61.70;100252.84;4808277;29;20378;-76
2021/12/24 11:41:28;;;;;;;2.83;0.20;;;;;;;-6.14;63.07;100256.09;4806913;29;20045;-78
2021/12/24 11:43:55;;;;;;;1.02;0.20;;;;;;;-6.15;62.19;100254.41;4807897;29;20031;-77
2021/12/24 11:46:23;;;;;;;0.98;0.17;;;;;;;-6.16;64.81;100234.41;4820241;29;20042;-78
2021/12/24 11:48:51;;;;;;;1.77;0.30;;;;;;;-5.88;65.40;100269.13;4807743;29;20035;-77
2021/12/24 11:51:40;;;;;;;0.60;0.10;;;;;;;-5.81;66.05;100265.97;4808890;29;20015;-80
2021/12/24 11:54:08;;;;;;;0.38;0.10;;;;;;;-5.93;65.26;100251.13;4822236;29;20103;-79
2021/12/24 11:56:41;;;;;;;1.08;0.20;;;;;;;-6.03;66.24;100235.22;4796902;29;20030;-78
2021/12/24 11:59:07;;;;;;;0.50;0.20;;;;;;;-5.81;66.87;100260.72;4802717;29;20496;-78
2021/12/24 12:01:39;;;;;;;1.05;0.20;;;;;;;-5.86;67.74;100256.75;4810167;29;20035;-81
2021/12/24 12:06:39;;;;;;;0.45;0.13;;;;;;;-5.78;67.50;100243.97;5009791;24;20283;-76
2021/12/24 12:09:08;;;;;;;0.40;0.10;;;;;;;-5.82;66.83;100256.44;4810128;29;20034;-77
2021/12/24 12:11:35;;;;;;;0.50;0.22;;;;;;;-5.69;68.34;100248.56;4808256;29;20034;-77
2021/12/24 12:14:10;;;;;;;0.75;0.20;;;;;;;-5.65;68.95;100255.25;4823482;29;20151;-77
2021/12/24 12:16:38;;;;;;;1.20;0.35;;;;;;;-5.67;68.17;100251.88;4842688;29;20022;-78
2021/12/24 12:22:44;;;;;;;0.88;0.15;;;;;;;-5.55;68.79;100260.69;4834209;29;20369;-77
2021/12/24 12:25:10;;;;;;;1.38;0.20;;;;;;;-5.71;66.81;100269.63;4826273;29;20030;-78
2021/12/24 12:27:53;;;;;;;0.65;0.10;;;;;;;-5.89;68.16;100242.09;4825591;29;20038;-78
2021/12/24 12:30:28;;;;;;;2.25;0.10;;;;;;;-5.60;69.29;100257.53;4828458;29;20026;-78
2021/12/24 12:33:18;;;;;;;1.15;0.20;;;;;;;-5.67;66.65;100252.72;4820513;29;20042;-78
2021/12/24 12:35:48;;;;;;;0.50;0.10;;;;;;;-5.76;68.03;100227.19;4818333;29;20038;-78
2021/12/24 12:38:35;;;;;;;2.88;0.20;;;;;;;-5.50;67.15;100259.38;4802334;29;20022;-78
2021/12/24 12:41:23;;;;;;;0.82;0.20;;;;;;;-5.46;67.08;100252.16;4811235;29;20415;-77
2021/12/24 12:43:50;;;;;;;0.98;0.10;;;;;;;-5.59;68.42;100244.34;4819917;29;20022;-78
2021/12/24 12:46:24;;;;;;;1.73;0.20;;;;;;;-5.60;67.44;100228.69;4807053;29;20027;-78
2021/12/24 12:48:52;;;;;;;0.50;0.20;;;;;;;-5.47;67.65;100258.34;4816169;29;20050;-80
2021/12/24 12:51:20;;;;;;;1.08;0.22;;;;;;;-5.58;67.09;100272.22;4821130;29;20038;-80
2021/12/24 12:53:48;;;;;;;0.45;0.10;;;;;;;-5.58;65.14;100260.91;4819685;29;20468;-79
2021/12/24 12:56:31;;;;;;;1.13;0.20;;;;;;;-5.57;65.47;100262.56;4819951;29;20026;-77
2021/12/24 12:59:03;;;;;;;0.28;0.10;;;;;;;-5.45;65.77;100270.38;4789644;29;20145;-78
2021/12/24 13:01:30;;;;;;;0.57;0.10;;;;;;;-5.49;66.06;100260.25;4821940;29;20026;-78
2021/12/24 13:03:55;;;;;;;0.65;0.10;;;;;;;-5.47;66.30;100281.94;4819940;29;20365;-79
2021/12/24 13:06:25;;;;;;;1.98;0.13;;;;;;;-5.41;66.41;100271.00;4827397;29;20050;-80
2021/12/24 13:08:51;;;;;;;0.60;0.22;;;;;;;-5.59;63.79;100267.94;4808749;29;20034;-80
2021/12/24 13:11:20;;;;;;;1.75;0.32;;;;;;;-5.50;64.96;100276.91;4835902;29;20034;-78
2021/12/24 13:13:55;;;;;;;0.95;0.20;;;;;;;-5.44;65.18;100279.91;4838374;29;20081;-81
2021/12/24 13:16:28;;;;;;;0.22;0.10;;;;;;;-5.50;64.85;100290.84;4825195;29;20041;-80
2021/12/24 13:19:22;;;;;;;1.15;0.20;;;;;;;-5.54;64.70;100260.56;4838991;29;20101;-79
2021/12/24 13:25:11;;;;;;;1.15;0.28;;;;;;;-5.44;65.24;100294.81;4838513;29;20029;-80
2021/12/24 13:27:51;;;;;;;0.75;0.15;;;;;;;-5.60;64.53;100295.06;4837995;29;20030;-79
2021/12/24 13:30:18;;;;;;;1.17;0.30;;;;;;;-5.56;65.01;100312.28;4815688;29;20053;-78
2021/12/24 13:32:53;;;;;;;1.88;0.45;;;;;;;-5.44;65.88;100306.13;4839820;29;20029;-78
2021/12/24 13:35:30;;;;;;;1.15;0.50;;;;;;;-5.50;67.87;100316.22;4838062;29;20038;-78
2021/12/24 13:37:56;;;;;;;0.40;0.10;;;;;;;-5.74;67.55;100313.53;4828304;29;20487;-78
2021/12/24 13:40:25;;;;;;;0.75;0.20;;;;;;;-5.80;67.69;100317.41;4826985;29;20121;-78
2021/12/24 13:42:54;;;;;;;1.08;0.40;;;;;;;-5.64;67.35;100327.69;4842077;29;20026;-78
2021/12/24 13:45:21;;;;;;;0.93;0.30;;;;;;;-5.51;67.87;100322.41;4876709;24;20042;-78
2021/12/24 13:48:02;;;;;;;1.45;0.22;;;;;;;-5.47;66.88;100337.81;4828086;29;20030;-83